Airport View

Enter AWOS ICAO identifier for current METAR.

ex. KFNL

KGPC 171100Z AUTO 00000KT 4SM BR CLR M03/M05 A3012 RMK AO2

17 Nov 2019 11:04

Frequency: 118.125

Phone: 765-653-1789

Other Area AWOS: KCFJ - KIND - KHUF - KEYE

TAF AMD KIND 170820Z 1708/1812 07005KT P6SM SCT250 FM171800 VRB04KT P6SM BKN200 FM181000 VRB03KT P6SM BKN050